createdAt,value
2023-06-16T00:00:13.798Z,10.45
2023-06-16T00:02:43.039Z,7.15
2023-06-16T00:05:13.826Z,8.90
2023-06-16T00:07:40.800Z,6.65
2023-06-16T00:10:08.152Z,8.40
2023-06-16T00:12:35.459Z,8.35
2023-06-16T00:15:02.304Z,8.20
2023-06-16T00:17:29.338Z,10.45
2023-06-16T00:19:58.834Z,8.50
2023-06-16T00:22:27.044Z,7.60
2023-06-16T00:24:53.944Z,6.50
2023-06-16T00:27:26.224Z,9.35
2023-06-16T00:29:53.725Z,11.32
2023-06-16T00:32:20.354Z,11.00
2023-06-16T00:34:46.879Z,8.32
2023-06-16T00:37:13.427Z,11.55
2023-06-16T00:39:40.067Z,8.25
2023-06-16T00:42:06.904Z,6.35
2023-06-16T00:44:33.522Z,8.57
2023-06-16T00:47:00.369Z,8.85
2023-06-16T00:49:27.290Z,7.22
2023-06-16T00:51:54.457Z,15.57
2023-06-16T00:54:21.771Z,10.95
2023-06-16T00:56:48.870Z,8.98
2023-06-16T00:59:15.589Z,8.68
2023-06-16T01:01:42.348Z,8.32
2023-06-16T01:04:11.047Z,8.10
2023-06-16T01:06:37.703Z,8.98
2023-06-16T01:09:10.620Z,9.38
2023-06-16T01:11:37.126Z,11.18
2023-06-16T01:14:17.631Z,6.80
2023-06-16T01:16:46.004Z,14.20
2023-06-16T01:19:18.977Z,9.43
2023-06-16T01:21:51.722Z,9.48
2023-06-16T01:24:19.919Z,13.63
2023-06-16T01:26:51.236Z,11.85
2023-06-16T01:29:20.699Z,12.30
2023-06-16T01:31:47.368Z,11.60
2023-06-16T01:34:14.546Z,9.93
2023-06-16T01:36:42.680Z,14.07
2023-06-16T01:39:10.160Z,8.82
2023-06-16T01:41:37.223Z,7.93
2023-06-16T01:44:05.595Z,10.85
2023-06-16T01:46:32.691Z,10.57
2023-06-16T01:48:59.488Z,9.30
2023-06-16T01:51:26.166Z,11.32
2023-06-16T01:53:53.707Z,11.63
2023-06-16T01:56:20.774Z,9.35
2023-06-16T01:58:47.534Z,7.68
2023-06-16T02:01:19.891Z,9.38
2023-06-16T02:03:51.797Z,8.00
2023-06-16T02:06:27.836Z,8.70
2023-06-16T02:08:56.553Z,10.68
2023-06-16T02:11:23.182Z,8.48
2023-06-16T02:13:50.057Z,9.77
2023-06-16T02:16:16.596Z,8.73
2023-06-16T02:18:43.977Z,8.20
2023-06-16T02:21:10.978Z,8.43
2023-06-16T02:23:37.585Z,9.27
2023-06-16T02:26:04.199Z,8.30
2023-06-16T02:28:30.796Z,6.93
2023-06-16T02:30:57.381Z,9.15
2023-06-16T02:33:24.432Z,11.73
2023-06-16T02:35:51.299Z,9.40
2023-06-16T02:38:17.823Z,9.05
2023-06-16T02:40:44.487Z,8.65
2023-06-16T02:43:12.464Z,9.70
2023-06-16T02:45:39.083Z,10.90
2023-06-16T02:48:06.181Z,9.60
2023-06-16T02:50:32.734Z,22.08
2023-06-16T02:53:03.215Z,10.80
2023-06-16T02:55:30.157Z,10.00
2023-06-16T02:57:57.304Z,9.75
2023-06-16T03:00:25.184Z,8.75
2023-06-16T03:03:21.700Z,9.10
2023-06-16T03:05:58.472Z,11.27
2023-06-16T03:08:26.358Z,13.35
2023-06-16T03:10:53.368Z,15.32
2023-06-16T03:13:25.542Z,11.20
2023-06-16T03:15:55.666Z,8.57
2023-06-16T03:18:22.392Z,11.40
2023-06-16T03:20:49.438Z,9.90
2023-06-16T03:23:24.394Z,16.10
2023-06-16T03:25:50.978Z,8.70
2023-06-16T03:28:21.896Z,10.57
2023-06-16T03:30:49.435Z,10.30
2023-06-16T03:33:22.816Z,10.25
2023-06-16T03:35:50.653Z,17.23
2023-06-16T03:38:27.304Z,13.68
2023-06-16T03:40:54.084Z,9.00
2023-06-16T03:43:21.285Z,7.72
2023-06-16T03:45:48.020Z,10.23
2023-06-16T03:48:14.726Z,12.68
2023-06-16T03:50:47.237Z,12.18
2023-06-16T03:53:16.572Z,12.25
2023-06-16T03:55:44.821Z,9.93
2023-06-16T03:58:11.700Z,14.50
2023-06-16T04:00:38.220Z,13.43
2023-06-16T04:03:06.052Z,11.02
2023-06-16T04:05:33.884Z,17.55
2023-06-16T04:08:02.329Z,12.10
2023-06-16T04:10:28.966Z,9.05
2023-06-16T04:12:56.219Z,10.90
2023-06-16T04:15:23.537Z,11.18
2023-06-16T04:17:51.496Z,11.70
2023-06-16T04:20:18.795Z,19.05
2023-06-16T04:22:46.102Z,15.85
2023-06-16T04:25:13.488Z,8.88
2023-06-16T04:27:44.928Z,12.85
2023-06-16T04:30:12.327Z,13.27
2023-06-16T04:32:41.812Z,12.07
2023-06-16T04:35:12.446Z,11.65
2023-06-16T04:37:39.528Z,7.80
2023-06-16T04:40:09.325Z,10.13
2023-06-16T04:42:36.114Z,9.15
2023-06-16T04:45:02.900Z,10.98
2023-06-16T04:47:35.344Z,11.68
2023-06-16T04:50:02.539Z,14.25
2023-06-16T04:52:31.352Z,11.55
2023-06-16T04:55:01.588Z,12.52
2023-06-16T04:57:28.847Z,22.67
2023-06-16T04:59:56.774Z,12.32
2023-06-16T05:02:28.352Z,15.77
2023-06-16T05:05:02.231Z,13.30
2023-06-16T05:07:28.749Z,13.25
2023-06-16T05:09:58.941Z,14.95
2023-06-16T05:12:29.170Z,17.35
2023-06-16T05:14:56.160Z,12.27
2023-06-16T05:17:23.955Z,14.88
2023-06-16T05:19:50.658Z,13.60
2023-06-16T05:22:19.701Z,10.90
2023-06-16T05:24:46.495Z,14.75
2023-06-16T05:27:13.099Z,15.18
2023-06-16T05:29:39.805Z,13.65
2023-06-16T05:32:06.669Z,14.57
2023-06-16T05:34:33.923Z,13.00
2023-06-16T05:37:01.391Z,11.05
2023-06-16T05:39:28.346Z,9.32
2023-06-16T05:41:55.177Z,11.90
2023-06-16T05:44:21.637Z,14.15
2023-06-16T05:46:51.344Z,11.35
2023-06-16T05:49:26.434Z,15.70
2023-06-16T05:52:17.382Z,19.70
2023-06-16T05:58:06.013Z,14.20
2023-06-16T06:04:13.491Z,13.48
2023-06-16T06:10:27.949Z,12.43
2023-06-16T06:13:19.482Z,12.93
2023-06-16T06:16:12.971Z,15.00
2023-06-16T06:18:40.203Z,10.57
2023-06-16T06:21:06.786Z,9.98
2023-06-16T06:23:34.022Z,11.57
2023-06-16T06:26:00.755Z,13.38
2023-06-16T06:28:27.384Z,9.43
2023-06-16T06:30:54.403Z,11.05
2023-06-16T06:33:22.236Z,10.95
2023-06-16T06:35:49.544Z,8.82
2023-06-16T06:38:16.204Z,14.25
2023-06-16T06:40:43.551Z,9.20
2023-06-16T06:43:12.505Z,10.93
2023-06-16T06:45:46.843Z,10.43
2023-06-16T06:48:13.667Z,11.38
2023-06-16T06:50:41.738Z,15.05
2023-06-16T06:53:09.087Z,14.57
2023-06-16T06:55:35.699Z,11.02
2023-06-16T06:58:03.603Z,12.30
2023-06-16T07:00:30.181Z,11.35
2023-06-16T07:02:57.484Z,15.23
2023-06-16T07:09:08.565Z,10.13
2023-06-16T07:15:17.852Z,13.65
2023-06-16T07:21:03.431Z,12.05
2023-06-16T07:26:46.351Z,10.05
2023-06-16T07:36:09.715Z,14.80
2023-06-16T07:42:17.758Z,12.57
2023-06-16T07:45:10.010Z,14.00
2023-06-16T07:47:36.852Z,11.48
2023-06-16T07:50:03.915Z,10.55
2023-06-16T07:52:32.106Z,11.20
2023-06-16T08:07:48.865Z,11.38
2023-06-16T08:20:07.905Z,8.70
2023-06-16T08:25:34.368Z,12.70
2023-06-16T08:35:00.451Z,9.63
2023-06-16T08:37:51.769Z,9.90
2023-06-16T08:44:00.873Z,7.57
2023-06-16T08:46:27.601Z,10.85
2023-06-16T08:48:54.372Z,7.38
2023-06-16T08:51:22.815Z,9.80
2023-06-16T08:53:50.468Z,7.63
2023-06-16T08:56:19.385Z,6.70
2023-06-16T08:58:47.848Z,9.90
2023-06-16T09:01:16.102Z,10.35
2023-06-16T09:03:44.068Z,11.93
2023-06-16T09:06:37.694Z,11.40
2023-06-16T09:12:31.816Z,7.45
2023-06-16T09:18:45.830Z,9.25
2023-06-16T09:31:14.071Z,15.07
2023-06-16T09:37:24.938Z,7.97
2023-06-16T09:43:21.192Z,12.15
2023-06-16T09:52:45.739Z,8.20
2023-06-16T09:55:26.536Z,8.80
2023-06-16T09:57:58.121Z,14.77
2023-06-16T10:03:31.618Z,10.43
2023-06-16T10:10:02.662Z,12.10
2023-06-16T10:13:12.700Z,8.77
2023-06-16T10:19:22.866Z,11.63
2023-06-16T10:25:31.747Z,9.00
2023-06-16T10:34:58.310Z,10.70
2023-06-16T10:54:08.160Z,22.13
2023-06-16T11:00:13.911Z,13.80
2023-06-16T11:03:07.078Z,9.68
2023-06-16T11:05:37.857Z,9.30
2023-06-16T11:08:06.950Z,8.43
2023-06-16T11:10:50.489Z,10.02
2023-06-16T11:13:17.844Z,8.57
2023-06-16T11:15:50.130Z,8.02
2023-06-16T11:21:43.382Z,5.57
2023-06-16T11:24:13.635Z,8.90
2023-06-16T11:26:41.050Z,6.03
2023-06-16T11:29:08.280Z,8.75
2023-06-16T11:31:38.725Z,7.80
2023-06-16T11:34:06.529Z,4.05
2023-06-16T11:36:36.509Z,4.00
2023-06-16T11:39:05.445Z,5.78
2023-06-16T11:41:32.304Z,6.13
2023-06-16T11:44:00.029Z,4.55
2023-06-16T11:46:28.101Z,6.38
2023-06-16T11:48:55.027Z,3.90
2023-06-16T11:51:23.599Z,6.40
2023-06-16T12:00:23.505Z,3.10
2023-06-16T12:06:31.500Z,3.25
2023-06-16T12:12:50.804Z,4.50
2023-06-16T12:15:42.611Z,5.82
2023-06-16T12:21:52.736Z,6.50
2023-06-16T12:24:20.086Z,6.85
2023-06-16T12:26:47.346Z,7.07
2023-06-16T12:29:15.833Z,7.55
2023-06-16T12:31:52.585Z,7.35
2023-06-16T12:34:22.741Z,8.55
2023-06-16T12:36:50.228Z,7.07
2023-06-16T12:39:18.283Z,9.73
2023-06-16T12:42:04.448Z,7.13
2023-06-16T12:46:58.368Z,7.88
2023-06-16T12:49:25.148Z,7.95
2023-06-16T12:51:51.789Z,8.02
2023-06-16T12:54:18.641Z,11.23
2023-06-16T13:00:01.821Z,9.43
2023-06-16T13:06:09.143Z,11.80
2023-06-16T13:15:12.381Z,16.38
2023-06-16T13:17:39.430Z,8.73
2023-06-16T13:20:06.320Z,9.77
2023-06-16T13:22:33.110Z,7.75
2023-06-16T13:25:04.002Z,11.93
2023-06-16T13:27:30.543Z,7.68
2023-06-16T13:29:57.191Z,10.93
2023-06-16T13:32:26.977Z,7.30
2023-06-16T13:34:53.532Z,8.95
2023-06-16T13:37:20.114Z,8.20
2023-06-16T13:39:46.707Z,6.97
2023-06-16T13:42:13.441Z,9.15
2023-06-16T13:44:45.640Z,9.32
2023-06-16T13:53:08.814Z,9.55
2023-06-16T13:58:50.608Z,8.13
2023-06-16T14:14:42.151Z,6.35
2023-06-16T14:17:08.835Z,8.15
2023-06-16T14:19:35.872Z,7.10
2023-06-16T14:22:03.730Z,10.73
2023-06-16T14:24:30.612Z,6.47
2023-06-16T14:26:57.216Z,7.95
2023-06-16T14:29:23.819Z,8.45
2023-06-16T14:31:50.516Z,8.60
2023-06-16T14:34:17.154Z,7.40
2023-06-16T14:36:43.720Z,8.63
2023-06-16T14:39:13.501Z,8.48
2023-06-16T14:41:41.013Z,8.07
2023-06-16T14:47:03.793Z,7.60
2023-06-16T14:56:00.940Z,7.68
2023-06-16T14:58:56.614Z,7.68
2023-06-16T15:01:26.154Z,10.68
2023-06-16T15:07:33.793Z,7.50
2023-06-16T15:19:52.751Z,6.18
2023-06-16T15:25:41.811Z,5.13
2023-06-16T15:31:51.349Z,8.77
2023-06-16T15:40:53.981Z,5.22
2023-06-16T15:43:20.855Z,6.03
2023-06-16T15:45:47.541Z,5.45
2023-06-16T15:48:14.338Z,6.80
2023-06-16T15:50:40.987Z,5.00
2023-06-16T15:53:10.953Z,5.82
2023-06-16T15:55:40.654Z,8.93
2023-06-16T16:08:01.785Z,8.70
2023-06-16T16:14:09.911Z,6.30
2023-06-16T16:17:06.516Z,4.55
2023-06-16T16:19:38.910Z,6.65
2023-06-16T16:25:27.099Z,6.57
2023-06-16T16:28:21.090Z,5.07
2023-06-16T16:30:48.043Z,4.80
2023-06-16T16:33:15.009Z,7.40
2023-06-16T16:35:41.840Z,5.60
2023-06-16T16:38:09.211Z,6.07
2023-06-16T16:40:35.932Z,5.68
2023-06-16T16:43:02.472Z,7.15
2023-06-16T16:52:02.728Z,7.00
2023-06-16T16:55:00.885Z,6.15
2023-06-16T16:57:52.916Z,7.13
2023-06-16T17:03:39.227Z,7.50
2023-06-16T17:06:05.882Z,6.22
2023-06-16T17:08:32.970Z,4.28
2023-06-16T17:11:00.188Z,4.88
2023-06-16T17:13:26.859Z,6.90
2023-06-16T17:15:53.469Z,7.55
2023-06-16T17:18:20.188Z,6.00
2023-06-16T17:20:46.848Z,6.82
2023-06-16T17:23:13.508Z,5.88
2023-06-16T17:25:40.144Z,6.60
2023-06-16T17:28:07.353Z,5.57
2023-06-16T17:30:35.743Z,5.82
2023-06-16T17:33:02.270Z,5.10
2023-06-16T17:35:30.781Z,6.28
2023-06-16T17:37:58.361Z,4.90
2023-06-16T17:40:28.556Z,7.10
2023-06-16T17:42:55.261Z,5.50
2023-06-16T17:45:21.949Z,8.05
2023-06-16T17:47:48.573Z,6.85
2023-06-16T17:50:15.496Z,6.40
2023-06-16T17:52:42.458Z,5.20
2023-06-16T17:55:09.465Z,6.45
2023-06-16T17:57:35.951Z,6.90
2023-06-16T18:00:04.151Z,7.30
2023-06-16T18:02:38.933Z,6.40
2023-06-16T18:05:05.987Z,4.93
2023-06-16T18:07:32.670Z,5.70
2023-06-16T18:09:59.341Z,4.97
2023-06-16T18:12:26.369Z,8.20
2023-06-16T18:14:52.865Z,5.22
2023-06-16T18:17:19.444Z,8.38
2023-06-16T18:19:46.100Z,4.20
2023-06-16T18:22:12.684Z,8.80
2023-06-16T18:24:39.224Z,3.97
2023-06-16T18:27:06.832Z,4.13
2023-06-16T18:29:35.704Z,4.35
2023-06-16T18:32:05.287Z,6.38
2023-06-16T18:34:32.353Z,10.15
2023-06-16T18:36:58.883Z,5.35
2023-06-16T18:39:26.874Z,15.32
2023-06-16T18:41:53.605Z,12.15
2023-06-16T18:44:20.627Z,5.75
2023-06-16T18:46:47.260Z,4.57
2023-06-16T18:49:14.063Z,5.00
2023-06-16T18:51:42.523Z,5.43
2023-06-16T18:54:09.946Z,4.45
2023-06-16T18:56:37.413Z,7.40
2023-06-16T18:59:04.214Z,8.05
2023-06-16T19:01:31.048Z,5.47
2023-06-16T19:03:57.806Z,6.75
2023-06-16T19:06:25.391Z,6.50
2023-06-16T19:08:53.011Z,8.20
2023-06-16T19:11:19.801Z,7.20
2023-06-16T19:13:48.639Z,8.25
2023-06-16T19:16:16.045Z,6.95
2023-06-16T19:18:43.342Z,6.18
2023-06-16T19:21:10.255Z,8.43
2023-06-16T19:23:36.932Z,6.15
2023-06-16T19:26:04.164Z,6.85
2023-06-16T19:28:44.812Z,9.07
2023-06-16T19:31:11.489Z,6.78
2023-06-16T19:33:38.205Z,7.00
2023-06-16T19:36:04.965Z,5.75
2023-06-16T19:38:31.469Z,8.48
2023-06-16T19:40:57.947Z,7.03
2023-06-16T19:43:24.632Z,8.25
2023-06-16T19:45:51.310Z,7.65
2023-06-16T19:48:18.222Z,5.55
2023-06-16T19:50:44.999Z,6.38
2023-06-16T19:53:11.677Z,7.07
2023-06-16T19:55:49.155Z,7.35
2023-06-16T19:58:17.625Z,12.15
2023-06-16T20:00:44.677Z,6.43
2023-06-16T20:03:11.554Z,7.97
2023-06-16T20:05:38.175Z,7.80
2023-06-16T20:08:04.890Z,7.50
2023-06-16T20:10:33.784Z,5.30
2023-06-16T20:13:01.084Z,9.50
2023-06-16T20:15:27.777Z,7.28
2023-06-16T20:17:54.712Z,10.05
2023-06-16T20:20:21.730Z,8.50
2023-06-16T20:22:48.764Z,9.15
2023-06-16T20:25:18.551Z,9.93
2023-06-16T20:27:45.348Z,9.25
2023-06-16T20:30:11.989Z,6.32
2023-06-16T20:32:38.964Z,10.65
2023-06-16T20:35:06.083Z,7.95
2023-06-16T20:37:33.311Z,8.27
2023-06-16T20:40:10.361Z,7.38
2023-06-16T20:42:37.796Z,6.85
2023-06-16T20:45:07.609Z,6.75
2023-06-16T20:47:37.484Z,6.38
2023-06-16T20:50:05.556Z,6.43
2023-06-16T20:52:32.401Z,7.13
2023-06-16T20:54:58.966Z,5.68
2023-06-16T20:57:27.615Z,5.65
2023-06-16T20:59:54.414Z,5.50
2023-06-16T21:02:21.163Z,7.28
2023-06-16T21:04:49.279Z,4.78
2023-06-16T21:07:21.005Z,4.50
2023-06-16T21:09:47.675Z,6.45
2023-06-16T21:12:14.275Z,6.20
2023-06-16T21:14:41.338Z,4.53
2023-06-16T21:17:07.830Z,3.88
2023-06-16T21:19:46.905Z,5.20
2023-06-16T21:22:14.332Z,4.95
2023-06-16T21:24:40.985Z,5.22
2023-06-16T21:27:07.648Z,4.07
2023-06-16T21:29:34.257Z,4.18
2023-06-16T21:32:00.846Z,5.30
2023-06-16T21:34:27.391Z,4.88
2023-06-16T21:36:53.837Z,5.57
2023-06-16T21:39:22.430Z,5.47
2023-06-16T21:41:49.385Z,11.07
2023-06-16T21:44:15.979Z,6.90
2023-06-16T21:46:42.601Z,6.25
2023-06-16T21:49:09.222Z,6.28
2023-06-16T21:51:35.789Z,3.90
2023-06-16T21:54:02.483Z,6.88
2023-06-16T21:56:29.052Z,4.75
2023-06-16T21:58:55.781Z,4.60
2023-06-16T22:01:22.539Z,6.13
2023-06-16T22:03:49.463Z,4.00
2023-06-16T22:06:17.533Z,7.22
2023-06-16T22:08:44.080Z,5.18
2023-06-16T22:11:10.795Z,4.10
2023-06-16T22:13:37.328Z,4.78
2023-06-16T22:16:04.166Z,6.05
2023-06-16T22:18:30.830Z,3.90
2023-06-16T22:20:57.954Z,4.63
2023-06-16T22:23:24.685Z,4.95
2023-06-16T22:25:51.511Z,5.32
2023-06-16T22:28:18.050Z,6.35
2023-06-16T22:30:44.810Z,4.35
2023-06-16T22:33:11.338Z,6.40
2023-06-16T22:35:38.119Z,7.82
2023-06-16T22:38:04.579Z,6.03
2023-06-16T22:40:31.137Z,5.88
2023-06-16T22:42:57.629Z,5.22
2023-06-16T22:45:24.358Z,4.07
2023-06-16T22:47:52.894Z,5.53
2023-06-16T22:50:19.934Z,8.30
2023-06-16T22:52:47.697Z,4.80
2023-06-16T22:55:14.264Z,7.80
2023-06-16T22:57:40.983Z,5.68
2023-06-16T23:00:09.910Z,7.60
2023-06-16T23:02:36.579Z,9.50
2023-06-16T23:05:03.453Z,9.52
2023-06-16T23:07:30.151Z,6.18
2023-06-16T23:09:56.637Z,6.18
2023-06-16T23:12:23.362Z,6.82
2023-06-16T23:14:49.849Z,6.78
2023-06-16T23:17:16.393Z,6.60
2023-06-16T23:19:42.969Z,5.68
2023-06-16T23:22:09.575Z,8.48
2023-06-16T23:24:36.238Z,6.47
2023-06-16T23:27:03.079Z,6.07
2023-06-16T23:29:29.928Z,6.68
2023-06-16T23:31:56.403Z,7.05
2023-06-16T23:34:24.159Z,6.60
2023-06-16T23:36:51.293Z,5.63
2023-06-16T23:39:18.239Z,8.70
2023-06-16T23:41:44.886Z,8.23
2023-06-16T23:44:11.476Z,6.25
2023-06-16T23:46:38.057Z,6.75
2023-06-16T23:49:04.641Z,7.15
2023-06-16T23:51:31.154Z,7.90
2023-06-16T23:53:57.780Z,7.25
2023-06-16T23:56:25.117Z,7.00
2023-06-16T23:58:51.885Z,7.25
